Search for airport 
image banner adimage banner adimage banner ad
image banner ad

5CL6 - Edward Roybal Federal Bldg

Located in Los Angeles, United States

ICAO - 5CL6, IATA -

Data provided by Airmate  

General information

Coordinates: N34°3'10" W118°14'20"
Elevation is 646 feet MSL.
Magnetic variation is 14° East
View others Airports in California

Operational data

Special qualification required
Current time UTC:
Current local time:
METAR: KHHR 141253Z COR 00000KT 10SM CLR 17/13 A2990 RMK AO2 SLP124 T01670133
View NOTAMs / SUP AIP / TFR affecting this airport [VIEW]
Communications frequencies: [VIEW]

Runways:

Airport contact information

Address: Los Angeles United States

Satellite view of 5CL6